Time;durP1;ratioP1;P1;durP2;ratioP2;P2;SDS_P1;SDS_P2;PMS_P1;PMS_P2;Temp;Humidity;BMP_temperature;BMP_pressure;BME280_temperature;BME280_humidity;BME280_pressure;Samples;Min_cycle;Max_cycle;Signal;HPM_P1;HPM_P2
2023/03/27 00:01:24;;;;;;;1.20;1.00;;;16.60;65.70;;;;;;5053361;28;20646;-66
2023/03/27 00:04:15;;;;;;;2.63;1.60;;;16.70;65.60;;;;;;5053055;28;20201;-66
2023/03/27 00:07:05;;;;;;;1.13;1.00;;;16.70;65.00;;;;;;5054107;28;20207;-66
2023/03/27 00:09:53;;;;;;;3.67;0.98;;;16.70;65.60;;;;;;5053273;28;20193;-66
2023/03/27 00:12:43;;;;;;;2.60;1.10;;;16.70;65.40;;;;;;5052320;28;20759;-66
2023/03/27 00:15:31;;;;;;;1.60;0.90;;;16.70;65.10;;;;;;5066473;28;20231;-66
2023/03/27 00:18:20;;;;;;;2.55;1.40;;;16.60;65.10;;;;;;5067224;28;20283;-66
2023/03/27 00:21:09;;;;;;;1.50;1.02;;;16.50;64.80;;;;;;5066979;28;20243;-66
2023/03/27 00:23:59;;;;;;;4.10;1.13;;;16.60;65.30;;;;;;5057125;28;20292;-66
2023/03/27 00:26:47;;;;;;;1.00;0.90;;;16.60;65.60;;;;;;5053420;28;20666;-66
2023/03/27 00:29:35;;;;;;;1.50;1.33;;;16.60;65.40;;;;;;5052866;28;20283;-66
2023/03/27 00:32:24;;;;;;;0.93;0.90;;;16.60;65.30;;;;;;5052715;28;20292;-66
2023/03/27 00:35:13;;;;;;;1.20;1.10;;;16.60;65.60;;;;;;5052463;28;20198;-67
2023/03/27 00:38:02;;;;;;;2.92;1.17;;;16.60;65.50;;;;;;5052486;28;20209;-66
2023/03/27 00:40:53;;;;;;;2.35;1.00;;;16.50;65.20;;;;;;5052321;28;20237;-66
2023/03/27 00:43:43;;;;;;;3.75;1.13;;;16.50;65.00;;;;;;5051694;28;20201;-66
2023/03/27 00:46:38;;;;;;;0.82;0.80;;;16.50;65.00;;;;;;5052456;28;20282;-66
2023/03/27 00:49:30;;;;;;;1.33;0.90;;;16.50;65.00;;;;;;5052813;28;20208;-66
2023/03/27 00:52:20;;;;;;;1.83;0.80;;;16.50;65.40;;;;;;5051691;28;20733;-66
2023/03/27 00:55:14;;;;;;;2.28;1.10;;;16.50;64.70;;;;;;5052499;28;20205;-66
2023/03/27 00:58:06;;;;;;;1.30;1.07;;;16.50;65.10;;;;;;5066199;28;20690;-66
2023/03/27 01:00:56;;;;;;;1.40;1.00;;;16.50;65.00;;;;;;5063149;28;20600;-66
2023/03/27 01:03:47;;;;;;;1.05;0.98;;;16.40;64.90;;;;;;5052756;28;20705;-65
2023/03/27 01:06:38;;;;;;;2.75;1.00;;;16.30;64.40;;;;;;5051553;28;20702;-66
2023/03/27 01:09:26;;;;;;;1.80;1.00;;;16.30;65.00;;;;;;5047493;28;20251;-65
2023/03/27 01:12:31;;;;;;;2.90;1.10;;;16.30;64.70;;;;;;5051872;28;20303;-66
2023/03/27 01:15:31;;;;;;;1.17;0.85;;;16.30;64.90;;;;;;5052743;28;20292;-67
2023/03/27 01:18:33;;;;;;;1.45;0.88;;;16.40;65.30;;;;;;5052036;28;20204;-66
2023/03/27 01:22:08;;;;;;;1.83;1.00;;;16.40;65.00;;;;;;5053582;28;20228;-66
2023/03/27 01:25:23;;;;;;;1.17;0.90;;;16.40;65.00;;;;;;5052820;28;20201;-66
2023/03/27 01:28:27;;;;;;;1.53;1.00;;;16.40;65.10;;;;;;5051757;28;20335;-66
2023/03/27 01:31:33;;;;;;;1.85;0.80;;;16.40;65.00;;;;;;5052578;28;20320;-66
2023/03/27 01:34:53;;;;;;;1.20;0.90;;;16.40;64.90;;;;;;5052214;28;20704;-66
2023/03/27 01:38:14;;;;;;;1.00;0.80;;;16.50;65.00;;;;;;5040937;28;20237;-66
2023/03/27 01:41:11;;;;;;;1.10;0.70;;;16.50;65.10;;;;;;5051228;28;20213;-66
2023/03/27 01:44:03;;;;;;;1.80;0.85;;;16.50;65.10;;;;;;5052459;28;20758;-66
2023/03/27 01:46:55;;;;;;;0.80;0.80;;;16.50;64.50;;;;;;5051996;28;20295;-66
2023/03/27 01:49:50;;;;;;;3.13;0.80;;;16.50;64.70;;;;;;5051752;28;20205;-66
2023/03/27 01:52:42;;;;;;;1.83;0.80;;;16.40;64.80;;;;;;5051357;28;20225;-66
2023/03/27 01:55:35;;;;;;;1.80;1.10;;;16.40;64.80;;;;;;5051513;28;20236;-67
2023/03/27 01:58:32;;;;;;;1.02;0.95;;;16.40;64.90;;;;;;5069157;28;20216;-66
2023/03/27 02:01:25;;;;;;;3.38;1.00;;;16.30;65.00;;;;;;5072508;28;20213;-67
2023/03/27 02:04:18;;;;;;;1.30;0.98;;;16.30;65.20;;;;;;5070836;28;20197;-66
2023/03/27 02:07:11;;;;;;;0.95;0.80;;;16.30;65.10;;;;;;5070918;28;20197;-66
2023/03/27 02:10:03;;;;;;;1.67;1.00;;;16.30;65.40;;;;;;5070812;28;20207;-66
2023/03/27 02:12:56;;;;;;;2.83;1.25;;;16.30;65.50;;;;;;5074049;28;20343;-66
2023/03/27 02:15:48;;;;;;;1.70;0.90;;;16.20;65.30;;;;;;5073875;28;20197;-66
2023/03/27 02:18:40;;;;;;;1.48;0.90;;;16.20;66.10;;;;;;5073972;28;20196;-66
2023/03/27 02:21:31;;;;;;;1.13;0.90;;;16.20;65.20;;;;;;5073592;28;20624;-66
2023/03/27 02:24:19;;;;;;;0.95;0.82;;;16.20;65.50;;;;;;5074363;28;20201;-66
2023/03/27 02:27:14;;;;;;;2.05;0.88;;;16.20;65.50;;;;;;5074480;28;20470;-66
2023/03/27 02:30:10;;;;;;;2.00;0.82;;;16.30;65.20;;;;;;5075991;28;20197;-66
2023/03/27 02:33:07;;;;;;;1.15;0.90;;;16.30;65.20;;;;;;5074450;28;20266;-67
2023/03/27 02:36:00;;;;;;;1.65;1.25;;;16.30;65.10;;;;;;5075889;28;20288;-66
2023/03/27 02:38:53;;;;;;;3.47;0.90;;;16.20;64.90;;;;;;5074238;28;20211;-66
2023/03/27 02:41:49;;;;;;;1.33;0.90;;;16.30;65.10;;;;;;5075335;28;20274;-66
2023/03/27 02:44:42;;;;;;;1.00;0.90;;;16.30;64.60;;;;;;5074639;28;20579;-66
2023/03/27 02:47:38;;;;;;;4.05;0.80;;;16.30;64.90;;;;;;5074735;28;20354;-65
2023/03/27 02:50:33;;;;;;;1.87;0.83;;;16.40;64.80;;;;;;5074052;28;20220;-66
2023/03/27 02:53:25;;;;;;;1.20;0.80;;;16.40;64.80;;;;;;5074515;28;20342;-66
2023/03/27 02:56:16;;;;;;;1.55;0.80;;;16.30;64.00;;;;;;5074504;28;20203;-66
2023/03/27 02:59:08;;;;;;;1.70;1.00;;;16.40;64.20;;;;;;5035234;28;20687;-66
2023/03/27 03:01:57;;;;;;;1.63;0.82;;;16.40;64.30;;;;;;5033628;28;20315;-65
2023/03/27 03:04:55;;;;;;;1.67;0.90;;;16.40;64.60;;;;;;5034759;28;20209;-66
2023/03/27 03:07:45;;;;;;;2.78;0.90;;;16.40;64.10;;;;;;5034852;28;20194;-66
2023/03/27 03:10:34;;;;;;;1.08;0.85;;;16.30;64.30;;;;;;5035202;28;20307;-66
2023/03/27 03:13:22;;;;;;;1.50;0.88;;;16.20;64.00;;;;;;5033878;28;20287;-65
2023/03/27 03:16:10;;;;;;;1.23;0.70;;;16.20;64.30;;;;;;5034443;28;20288;-66
2023/03/27 03:18:58;;;;;;;1.90;0.95;;;16.20;64.30;;;;;;5057985;28;20193;-66
2023/03/27 03:21:48;;;;;;;1.80;0.82;;;16.20;64.70;;;;;;5074262;28;20227;-66
2023/03/27 03:24:40;;;;;;;1.05;0.93;;;16.10;64.70;;;;;;5073557;28;20254;-66
2023/03/27 03:27:30;;;;;;;2.97;1.17;;;16.10;64.70;;;;;;5073126;28;20286;-65
2023/03/27 03:30:18;;;;;;;2.10;0.80;;;16.30;82.90;;;;;;5074381;28;20703;-66
2023/03/27 03:33:06;;;;;;;0.85;0.80;;;16.00;64.70;;;;;;5073225;28;20232;-66
2023/03/27 03:35:57;;;;;;;2.22;1.58;;;16.10;64.90;;;;;;5072652;28;20201;-65
2023/03/27 03:38:45;;;;;;;1.92;0.80;;;16.10;65.00;;;;;;5074606;28;20197;-66
2023/03/27 03:41:35;;;;;;;2.90;1.10;;;16.10;65.10;;;;;;5072080;28;20294;-66
2023/03/27 03:44:23;;;;;;;3.35;0.90;;;16.10;64.60;;;;;;5073332;28;20236;-66
2023/03/27 03:47:11;;;;;;;1.10;1.00;;;16.00;64.50;;;;;;5074252;28;20196;-65
2023/03/27 03:49:59;;;;;;;1.92;0.75;;;16.00;64.40;;;;;;5073120;28;20232;-66
2023/03/27 03:52:47;;;;;;;1.20;1.10;;;16.10;64.10;;;;;;5071824;28;20301;-66
2023/03/27 03:55:35;;;;;;;1.63;1.10;;;16.00;63.80;;;;;;5074262;28;20203;-65
2023/03/27 03:58:25;;;;;;;0.93;0.82;;;16.00;64.00;;;;;;5055886;28;20605;-65
2023/03/27 04:01:21;;;;;;;1.05;0.80;;;15.90;63.40;;;;;;5052070;28;20256;-66
2023/03/27 04:04:10;;;;;;;1.10;0.80;;;15.90;63.00;;;;;;5052030;28;20204;-66
2023/03/27 04:06:58;;;;;;;2.45;1.00;;;15.90;63.80;;;;;;5052770;28;20209;-66
2023/03/27 04:09:46;;;;;;;1.13;0.80;;;15.90;63.90;;;;;;5052636;28;20213;-66
2023/03/27 04:12:34;;;;;;;1.00;0.90;;;15.90;63.60;;;;;;5052023;28;20926;-66
2023/03/27 04:15:24;;;;;;;0.80;0.80;;;15.90;63.90;;;;;;5052018;28;20284;-66
2023/03/27 04:18:13;;;;;;;0.88;0.75;;;16.00;63.80;;;;;;5052140;28;20197;-66
2023/03/27 04:21:02;;;;;;;0.97;0.80;;;15.90;63.20;;;;;;5051748;28;20229;-66
2023/03/27 04:23:50;;;;;;;0.73;0.73;;;15.80;63.20;;;;;;5052451;28;20231;-66
2023/03/27 04:26:38;;;;;;;1.03;0.70;;;15.80;63.20;;;;;;5052572;28;20695;-66
2023/03/27 04:29:29;;;;;;;1.50;0.90;;;15.80;63.20;;;;;;5052460;28;20303;-66
2023/03/27 04:32:18;;;;;;;0.95;0.80;;;15.80;62.70;;;;;;5051285;28;20304;-66
2023/03/27 04:35:07;;;;;;;0.73;0.70;;;15.80;62.80;;;;;;5051782;28;20197;-66
2023/03/27 04:37:55;;;;;;;0.70;0.70;;;15.80;63.10;;;;;;5053001;28;20212;-66
2023/03/27 04:40:44;;;;;;;0.70;0.70;;;15.80;62.80;;;;;;5051779;28;20656;-66
2023/03/27 04:43:35;;;;;;;0.70;0.60;;;15.80;63.00;;;;;;5052019;28;20263;-65
2023/03/27 04:46:23;;;;;;;2.17;0.87;;;15.80;63.00;;;;;;5051641;28;20674;-66
2023/03/27 04:49:13;;;;;;;1.50;0.87;;;15.80;63.30;;;;;;5051348;28;20435;-66
2023/03/27 04:52:01;;;;;;;0.90;0.73;;;15.80;62.70;;;;;;5052032;28;20304;-66
2023/03/27 04:54:49;;;;;;;0.80;0.70;;;15.70;62.60;;;;;;5051956;28;20754;-66
2023/03/27 04:57:37;;;;;;;1.10;0.83;;;15.70;62.70;;;;;;5075864;28;20270;-66
2023/03/27 05:00:25;;;;;;;1.07;0.87;;;15.60;62.00;;;;;;5086717;28;20220;-66
2023/03/27 05:03:13;;;;;;;0.80;0.77;;;15.60;62.20;;;;;;5084672;28;20254;-66
2023/03/27 05:06:03;;;;;;;2.67;1.13;;;15.60;62.60;;;;;;5077165;28;20205;-66
2023/03/27 05:08:51;;;;;;;0.60;0.60;;;15.60;62.90;;;;;;5074308;28;20196;-66
2023/03/27 05:11:40;;;;;;;3.30;1.87;;;15.60;63.40;;;;;;5072442;28;20222;-65
2023/03/27 05:14:28;;;;;;;1.50;1.00;;;15.60;62.70;;;;;;5074319;28;20365;-66
2023/03/27 05:17:17;;;;;;;4.00;0.90;;;15.60;63.30;;;;;;5072358;28;20959;-66
2023/03/27 05:20:07;;;;;;;3.03;1.10;;;15.50;79.80;;;;;;5072243;28;20299;-66
2023/03/27 05:22:56;;;;;;;9.93;2.50;;;15.70;62.40;;;;;;5072098;28;20220;-63
2023/03/27 05:25:45;;;;;;;4.47;1.63;;;15.70;62.70;;;;;;5072429;28;20211;-63
2023/03/27 05:28:47;;;;;;;3.13;0.80;;;15.70;62.70;;;;;;5073176;28;20197;-63
2023/03/27 05:31:36;;;;;;;0.80;0.80;;;15.70;62.70;;;;;;5080333;28;20244;-63
2023/03/27 05:34:27;;;;;;;1.30;0.80;;;15.70;62.70;;;;;;5083915;28;20224;-63
2023/03/27 05:37:15;;;;;;;1.77;0.90;;;15.70;62.80;;;;;;5088585;28;20228;-63
2023/03/27 05:40:05;;;;;;;1.10;0.90;;;15.70;62.60;;;;;;5085206;28;20280;-64
2023/03/27 05:42:55;;;;;;;3.90;2.03;;;15.70;62.80;;;;;;5054750;28;20190;-63
2023/03/27 05:45:43;;;;;;;1.47;1.20;;;15.60;62.80;;;;;;5061741;28;20221;-63
2023/03/27 05:48:31;;;;;;;2.83;1.02;;;15.60;62.60;;;;;;5058317;28;20236;-63
2023/03/27 05:51:19;;;;;;;0.90;0.90;;;15.60;62.70;;;;;;5055901;28;20220;-63
2023/03/27 05:54:07;;;;;;;2.50;1.10;;;15.60;62.90;;;;;;5069869;28;20301;-63
2023/03/27 05:56:57;;;;;;;1.63;1.53;;;15.50;62.70;;;;;;5058445;28;20296;-63
2023/03/27 05:59:47;;;;;;;2.20;0.90;;;15.50;63.40;;;;;;5056698;28;20205;-65
2023/03/27 06:02:35;;;;;;;1.17;0.95;;;15.50;63.20;;;;;;5053726;28;20229;-63
2023/03/27 06:05:25;;;;;;;2.83;1.30;;;15.40;63.00;;;;;;5055330;28;20685;-63
2023/03/27 06:08:13;;;;;;;5.50;1.60;;;15.40;63.10;;;;;;5054825;28;20416;-63
2023/03/27 06:11:01;;;;;;;1.60;1.20;;;15.40;63.60;;;;;;5055532;28;20233;-63
2023/03/27 06:13:50;;;;;;;1.57;1.07;;;15.50;63.60;;;;;;5054805;28;20347;-63
2023/03/27 06:16:39;;;;;;;1.30;1.07;;;15.50;64.00;;;;;;5050417;28;20292;-63
2023/03/27 06:19:27;;;;;;;1.33;0.97;;;15.50;64.70;;;;;;5053209;28;20205;-63
2023/03/27 06:22:15;;;;;;;3.05;1.38;;;15.70;66.20;;;;;;5049306;28;20239;-63
2023/03/27 06:25:05;;;;;;;1.37;1.07;;;16.00;66.60;;;;;;5045643;28;20203;-63
2023/03/27 06:27:53;;;;;;;2.10;1.10;;;16.40;66.20;;;;;;5052029;28;20202;-63
2023/03/27 06:30:43;;;;;;;4.40;1.20;;;16.70;67.20;;;;;;5049330;28;20624;-64
2023/03/27 06:33:31;;;;;;;1.67;1.03;;;18.40;68.10;;;;;;5045781;28;20221;-63
2023/03/27 06:36:19;;;;;;;2.33;1.02;;;17.30;65.20;;;;;;5068547;28;20330;-64
2023/03/27 06:39:07;;;;;;;4.15;1.58;;;17.40;63.90;;;;;;5074135;28;20193;-64
2023/03/27 06:41:55;;;;;;;1.33;1.00;;;17.60;64.50;;;;;;5074195;28;20270;-63
2023/03/27 06:44:43;;;;;;;8.43;1.95;;;17.80;64.50;;;;;;5053809;28;20243;-64
2023/03/27 06:47:34;;;;;;;4.70;1.20;;;17.90;63.50;;;;;;5056020;28;20283;-64
2023/03/27 06:50:39;;;;;;;1.70;1.10;;;18.10;63.90;;;;;;5045466;28;20218;-64
2023/03/27 06:53:28;;;;;;;4.10;1.00;;;18.30;63.60;;;;;;5034881;28;20716;-64
2023/03/27 06:56:21;;;;;;;3.67;0.95;;;18.40;63.10;;;;;;5041323;28;20247;-63
2023/03/27 06:59:09;;;;;;;2.05;1.10;;;18.50;63.00;;;;;;5054832;28;20255;-65
2023/03/27 07:01:57;;;;;;;3.88;1.10;;;18.70;62.60;;;;;;5050767;28;20303;-63
2023/03/27 07:04:46;;;;;;;1.80;1.00;;;18.70;62.20;;;;;;5052380;28;20717;-63
2023/03/27 07:07:51;;;;;;;1.10;0.90;;;18.80;62.40;;;;;;5058072;28;20197;-63
2023/03/27 07:10:40;;;;;;;2.72;1.33;;;19.00;62.40;;;;;;5052594;28;20248;-64
2023/03/27 07:13:28;;;;;;;1.10;1.00;;;19.10;62.20;;;;;;5060770;28;20717;-63
2023/03/27 07:16:16;;;;;;;2.33;1.10;;;19.20;62.00;;;;;;5054969;28;20800;-63
2023/03/27 07:19:05;;;;;;;3.10;2.70;;;19.20;62.20;;;;;;5051483;28;20613;-63
2023/03/27 07:21:54;;;;;;;2.67;1.92;;;19.30;61.40;;;;;;5055745;28;20319;-64
2023/03/27 07:24:42;;;;;;;2.75;1.60;;;19.60;61.40;;;;;;5059671;28;20279;-63
2023/03/27 07:27:30;;;;;;;5.13;1.23;;;19.40;61.40;;;;;;5054934;28;20208;-63
2023/03/27 07:30:19;;;;;;;1.65;1.00;;;19.40;77.30;;;;;;5053072;28;20251;-63
2023/03/27 07:33:08;;;;;;;4.10;0.90;;;19.50;61.00;;;;;;5053149;28;20259;-64
2023/03/27 07:35:56;;;;;;;3.70;0.90;;;19.60;60.80;;;;;;5052956;28;20284;-66
2023/03/27 07:38:46;;;;;;;1.40;0.90;;;19.60;61.10;;;;;;5049786;28;20202;-64
2023/03/27 07:41:34;;;;;;;1.05;0.80;;;19.70;60.50;;;;;;5051947;28;20314;-63
2023/03/27 07:44:22;;;;;;;1.15;0.80;;;19.70;60.60;;;;;;5057222;28;20985;-66
2023/03/27 07:47:11;;;;;;;1.60;1.00;;;19.80;60.00;;;;;;5054679;28;20689;-65
2023/03/27 07:49:59;;;;;;;0.90;0.80;;;19.80;59.90;;;;;;5052380;28;20285;-65
2023/03/27 07:52:48;;;;;;;1.65;1.25;;;19.90;60.70;;;;;;5058536;28;20289;-66
2023/03/27 07:55:40;;;;;;;1.88;1.23;;;19.90;60.20;;;;;;5052138;28;20278;-66
2023/03/27 07:58:28;;;;;;;2.88;1.10;;;18.50;59.00;;;;;;5051545;28;20673;-66
2023/03/27 08:01:16;;;;;;;3.35;0.95;;;20.00;60.50;;;;;;5051611;28;20228;-65
2023/03/27 08:04:05;;;;;;;4.60;2.17;;;20.00;60.90;;;;;;5052808;28;20276;-65
2023/03/27 08:06:54;;;;;;;7.80;1.25;;;20.00;60.50;;;;;;5052218;28;20216;-66
2023/03/27 08:09:42;;;;;;;6.60;1.25;;;20.00;60.10;;;;;;5050141;28;20234;-66
2023/03/27 08:12:33;;;;;;;10.93;1.27;;;20.10;60.80;;;;;;5050337;28;20571;-66
2023/03/27 08:15:21;;;;;;;2.72;0.77;;;20.10;60.50;;;;;;5050206;28;20303;-65
2023/03/27 08:18:10;;;;;;;8.90;1.27;;;20.10;60.40;;;;;;5052889;28;20217;-65
2023/03/27 08:21:00;;;;;;;0.70;0.70;;;20.10;59.90;;;;;;5051874;28;20336;-65
2023/03/27 08:23:49;;;;;;;3.08;1.10;;;20.10;60.00;;;;;;5052138;28;20201;-65
2023/03/27 08:26:37;;;;;;;3.05;0.98;;;20.10;60.00;;;;;;5051820;28;20275;-65
2023/03/27 08:29:26;;;;;;;1.42;0.80;;;20.20;60.50;;;;;;5052869;28;20210;-65
2023/03/27 08:32:15;;;;;;;2.88;0.80;;;20.20;60.60;;;;;;5054369;28;20256;-66
2023/03/27 08:35:03;;;;;;;2.30;0.90;;;20.30;60.70;;;;;;5049538;28;20251;-65
2023/03/27 08:37:52;;;;;;;4.30;1.00;;;20.30;60.10;;;;;;5057365;28;20608;-65
2023/03/27 08:40:46;;;;;;;2.55;0.93;;;20.30;60.10;;;;;;5043003;28;20217;-66
2023/03/27 08:43:38;;;;;;;1.67;1.20;;;20.30;60.10;;;;;;5051865;28;20206;-66
2023/03/27 08:46:32;;;;;;;2.55;1.17;;;20.40;60.20;;;;;;5043796;28;20697;-64
2023/03/27 08:49:21;;;;;;;2.97;1.42;;;20.40;60.30;;;;;;5053116;28;20279;-64
2023/03/27 08:52:14;;;;;;;3.08;1.13;;;20.50;59.90;;;;;;5051700;28;20685;-65
2023/03/27 08:55:11;;;;;;;2.50;0.95;;;20.40;59.40;;;;;;5047500;28;20294;-67
2023/03/27 08:57:59;;;;;;;3.88;1.40;;;20.50;59.00;;;;;;5051242;28;20276;-65
2023/03/27 09:00:53;;;;;;;11.75;1.33;;;20.50;59.50;;;;;;5039474;28;20848;-66
2023/03/27 09:03:47;;;;;;;4.78;1.58;;;20.50;59.70;;;;;;5042673;28;20328;-66
2023/03/27 09:06:40;;;;;;;9.90;1.50;;;20.60;58.70;;;;;;5041211;28;20281;-65
2023/03/27 09:09:39;;;;;;;8.73;1.80;;;20.50;59.10;;;;;;5059353;28;20740;-66
2023/03/27 09:12:40;;;;;;;6.57;1.70;;;20.60;59.70;;;;;;5040867;28;20237;-66
2023/03/27 09:15:33;;;;;;;11.50;1.38;;;20.60;59.00;;;;;;5050504;28;20691;-66
2023/03/27 09:18:26;;;;;;;9.93;2.08;;;20.70;58.40;;;;;;5050611;28;20201;-67
2023/03/27 09:21:20;;;;;;;8.50;1.50;;;20.70;58.30;;;;;;5054225;28;20279;-67
2023/03/27 09:24:13;;;;;;;7.60;1.67;;;20.70;58.70;;;;;;5055380;28;20198;-66
2023/03/27 09:27:12;;;;;;;6.72;2.05;;;20.70;58.10;;;;;;5035114;28;20206;-65
2023/03/27 09:30:18;;;;;;;5.05;1.48;;;20.70;58.80;;;;;;5034991;28;20206;-66
2023/03/27 09:33:06;;;;;;;9.63;1.92;;;20.70;58.50;;;;;;5040695;28;20280;-66
2023/03/27 09:35:56;;;;;;;6.75;1.58;;;20.70;58.60;;;;;;5061251;28;20678;-68
2023/03/27 09:38:49;;;;;;;6.75;1.55;;;20.70;58.40;;;;;;5064826;28;20201;-67
2023/03/27 09:41:41;;;;;;;15.23;2.42;;;20.70;58.40;;;;;;5054074;28;20223;-65
2023/03/27 09:44:33;;;;;;;18.55;1.92;;;20.70;58.20;;;;;;5054135;28;20227;-66
2023/03/27 09:47:26;;;;;;;13.45;1.95;;;20.70;58.40;;;;;;5053813;28;20231;-66
2023/03/27 09:50:25;;;;;;;17.05;2.88;;;21.00;69.00;;;;;;5054647;28;20205;-67
2023/03/27 09:53:17;;;;;;;9.48;2.47;;;20.80;58.20;;;;;;5043347;28;20196;-65
2023/03/27 09:56:13;;;;;;;18.05;2.20;;;20.80;58.70;;;;;;5053297;28;20213;-66
2023/03/27 09:59:09;;;;;;;12.82;3.08;;;20.80;57.50;;;;;;5053517;28;20273;-67
2023/03/27 10:01:58;;;;;;;14.82;2.40;;;20.80;58.50;;;;;;5049034;28;20238;-68
2023/03/27 10:04:58;;;;;;;8.85;1.48;;;20.90;57.70;;;;;;5061109;28;20236;-67
2023/03/27 10:07:46;;;;;;;15.55;2.05;;;20.80;57.20;;;;;;5056768;28;20193;-68
2023/03/27 10:10:40;;;;;;;13.18;1.73;;;20.90;58.40;;;;;;5053942;28;20221;-67
2023/03/27 10:13:30;;;;;;;7.20;1.48;;;20.90;58.50;;;;;;5059102;28;20271;-68
2023/03/27 10:16:21;;;;;;;11.52;1.70;;;20.90;58.30;;;;;;5066505;28;20296;-67
2023/03/27 10:19:22;;;;;;;3.72;1.35;;;21.00;57.90;;;;;;5058038;28;20213;-69
2023/03/27 10:22:20;;;;;;;4.32;1.10;;;21.00;58.10;;;;;;5053677;28;20831;-68
2023/03/27 10:25:17;;;;;;;10.20;1.50;;;21.00;56.50;;;;;;5053694;28;20205;-68
2023/03/27 10:28:15;;;;;;;7.18;1.30;;;21.00;57.80;;;;;;5055586;28;20279;-69
2023/03/27 10:31:08;;;;;;;6.25;1.08;;;21.00;57.80;;;;;;5052688;28;20371;-69
2023/03/27 10:33:59;;;;;;;11.68;2.38;;;20.60;56.90;;;;;;5054588;28;20204;-69
2023/03/27 10:36:49;;;;;;;16.02;2.63;;;21.00;58.00;;;;;;5036767;28;20715;-68
2023/03/27 10:39:37;;;;;;;5.50;1.10;;;21.10;57.90;;;;;;5053604;28;20335;-69
2023/03/27 10:42:27;;;;;;;6.38;1.23;;;21.10;57.30;;;;;;5052299;28;20714;-68
2023/03/27 10:45:18;;;;;;;2.35;1.48;;;21.10;57.90;;;;;;5052690;28;20298;-68
2023/03/27 10:48:08;;;;;;;4.47;1.45;;;21.10;58.00;;;;;;5052078;28;20279;-68
2023/03/27 10:51:00;;;;;;;6.50;1.70;;;21.10;57.90;;;;;;5048092;28;20263;-68
2023/03/27 10:53:54;;;;;;;4.65;2.63;;;21.10;56.90;;;;;;5052586;28;20242;-68
2023/03/27 10:56:53;;;;;;;7.00;1.50;;;21.10;57.10;;;;;;5049761;28;20572;-68
2023/03/27 10:59:47;;;;;;;5.47;1.20;;;21.10;57.50;;;;;;5050205;28;20198;-68
2023/03/27 11:02:40;;;;;;;3.33;1.10;;;21.10;57.70;;;;;;5053101;28;20193;-68
2023/03/27 11:05:34;;;;;;;3.55;1.00;;;21.20;57.90;;;;;;5052308;28;20538;-68
2023/03/27 11:08:29;;;;;;;3.20;1.77;;;21.10;57.10;;;;;;5066549;28;20193;-68
2023/03/27 11:11:24;;;;;;;6.43;1.05;;;21.10;57.20;;;;;;5070562;28;20220;-68
2023/03/27 11:14:19;;;;;;;7.57;1.42;;;21.20;57.60;;;;;;5060932;28;20550;-68
2023/03/27 11:17:12;;;;;;;2.78;0.93;;;21.20;56.90;;;;;;5031027;28;20226;-68
2023/03/27 11:20:07;;;;;;;11.55;1.75;;;21.20;56.80;;;;;;5043379;28;20746;-68
2023/03/27 11:22:59;;;;;;;19.15;2.70;;;21.20;56.20;;;;;;5060916;28;20197;-67
2023/03/27 11:25:51;;;;;;;6.78;1.20;;;21.20;55.80;;;;;;5041855;28;20634;-66
2023/03/27 11:28:43;;;;;;;1.80;0.90;;;21.20;56.70;;;;;;5051462;28;20202;-67
2023/03/27 11:31:37;;;;;;;11.10;1.20;;;21.20;57.00;;;;;;5051850;28;20286;-66
2023/03/27 11:34:34;;;;;;;1.77;0.80;;;21.30;57.40;;;;;;5042296;28;20197;-67
2023/03/27 11:37:32;;;;;;;3.38;1.00;;;21.20;57.10;;;;;;5046422;28;20226;-66
2023/03/27 11:40:25;;;;;;;1.88;1.42;;;21.00;72.80;;;;;;5048985;28;20212;-69
2023/03/27 11:43:16;;;;;;;8.35;1.20;;;21.30;57.80;;;;;;5041357;28;20699;-68
2023/03/27 11:46:15;;;;;;;13.15;1.77;;;21.30;57.10;;;;;;5031088;28;20194;-66
2023/03/27 11:49:14;;;;;;;57.03;6.22;;;21.30;56.10;;;;;;5033624;28;20583;-67
2023/03/27 11:52:18;;;;;;;5.00;1.70;;;21.30;56.20;;;;;;5046381;28;20604;-67
2023/03/27 11:55:21;;;;;;;6.50;1.17;;;21.30;55.90;;;;;;5045563;28;20241;-67
2023/03/27 11:58:25;;;;;;;6.93;1.30;;;21.30;56.00;;;;;;5032132;28;20198;-68
2023/03/27 12:01:21;;;;;;;2.33;1.05;;;21.20;55.40;;;;;;5040299;28;20626;-67
2023/03/27 12:04:23;;;;;;;4.78;1.00;;;21.20;56.30;;;;;;5052634;28;20620;-68
2023/03/27 12:07:21;;;;;;;6.20;1.10;;;21.20;57.10;;;;;;5041330;28;20691;-67
2023/03/27 12:10:32;;;;;;;2.78;0.80;;;21.20;72.00;;;;;;5037511;28;20198;-68
2023/03/27 12:13:48;;;;;;;3.22;1.45;;;21.30;56.70;;;;;;5032360;28;20288;-68
2023/03/27 12:17:12;;;;;;;3.05;1.00;;;21.40;56.90;;;;;;5028542;28;20388;-68
2023/03/27 12:20:40;;;;;;;9.57;1.80;;;21.40;55.50;;;;;;5050654;28;20205;-67
2023/03/27 12:23:54;;;;;;;2.28;1.20;;;21.40;55.40;;;;;;5059283;28;20205;-67
2023/03/27 12:27:33;;;;;;;1.95;0.82;;;21.40;55.90;;;;;;5031216;28;20193;-67
2023/03/27 12:30:32;;;;;;;3.05;1.48;;;21.10;69.70;;;;;;5045633;28;20342;-68
2023/03/27 12:33:31;;;;;;;15.68;2.53;;;21.40;55.70;;;;;;5050538;28;20291;-68
2023/03/27 12:36:23;;;;;;;2.38;1.00;;;21.30;55.00;;;;;;5070901;28;20677;-68
2023/03/27 12:39:15;;;;;;;3.25;0.88;;;21.30;56.10;;;;;;5070088;28;20193;-68
2023/03/27 12:42:13;;;;;;;3.53;1.10;;;21.40;56.70;;;;;;5069621;28;20221;-67
2023/03/27 12:45:13;;;;;;;2.80;1.00;;;21.30;55.90;;;;;;5062067;28;20206;-67
2023/03/27 12:48:19;;;;;;;4.03;0.90;;;21.40;56.70;;;;;;5051544;28;20268;-67
2023/03/27 12:51:14;;;;;;;263.17;19.67;;;21.40;57.20;;;;;;5030577;28;20367;-67
2023/03/27 12:54:14;;;;;;;42.17;7.82;;;21.50;57.80;;;;;;5033053;28;20237;-66
2023/03/27 12:57:07;;;;;;;18.25;2.88;;;21.50;57.60;;;;;;5057417;28;20684;-68
2023/03/27 12:59:58;;;;;;;5.35;2.00;;;21.50;57.10;;;;;;5061512;28;20556;-67
2023/03/27 13:03:10;;;;;;;3.88;1.10;;;21.60;57.80;;;;;;5050383;28;20202;-67
2023/03/27 13:06:16;;;;;;;5.13;1.10;;;21.60;57.70;;;;;;5050004;28;20686;-67
2023/03/27 13:09:25;;;;;;;2.78;1.10;;;21.60;56.90;;;;;;5049802;28;20197;-68
2023/03/27 13:12:32;;;;;;;1.55;1.10;;;21.60;57.10;;;;;;5050447;28;20323;-68
2023/03/27 13:15:39;;;;;;;1.80;1.45;;;21.60;57.00;;;;;;5049953;28;20201;-67
2023/03/27 13:18:45;;;;;;;8.30;1.67;;;21.60;57.10;;;;;;5051928;28;20717;-67
2023/03/27 13:21:44;;;;;;;15.23;1.98;;;21.60;57.00;;;;;;5030159;28;20586;-67
2023/03/27 13:24:52;;;;;;;2.70;1.13;;;21.60;56.70;;;;;;5035729;28;20208;-67
2023/03/27 13:27:51;;;;;;;426.83;43.15;;;21.70;57.10;;;;;;5051767;28;20208;-67
2023/03/27 13:30:46;;;;;;;708.70;80.85;;;21.70;56.60;;;;;;5065005;28;20790;-67
2023/03/27 13:33:45;;;;;;;194.95;20.00;;;21.70;57.40;;;;;;5070323;28;20220;-67
2023/03/27 13:36:34;;;;;;;39.42;4.05;;;21.70;56.00;;;;;;5069626;28;20294;-67
2023/03/27 13:39:23;;;;;;;670.38;64.95;;;21.70;55.40;;;;;;5070092;28;20282;-68
2023/03/27 13:42:14;;;;;;;235.43;22.00;;;21.60;55.80;;;;;;5070016;28;20212;-67
2023/03/27 13:45:07;;;;;;;76.90;6.63;;;21.60;56.10;;;;;;5059749;28;20214;-68
2023/03/27 13:48:27;;;;;;;95.38;9.07;;;21.50;56.10;;;;;;5049699;28;20818;-68
2023/03/27 13:51:37;;;;;;;17.98;2.60;;;21.60;56.10;;;;;;5050033;28;20252;-67
2023/03/27 13:54:56;;;;;;;19.08;2.40;;;21.60;57.20;;;;;;5050206;28;20331;-67
2023/03/27 13:58:05;;;;;;;21.00;3.05;;;21.60;56.60;;;;;;5062116;28;20220;-68
2023/03/27 14:01:08;;;;;;;11.93;1.58;;;21.60;55.60;;;;;;5055578;28;20423;-67
2023/03/27 14:04:46;;;;;;;18.05;2.25;;;21.60;56.60;;;;;;5050203;28;20288;-67
2023/03/27 14:07:56;;;;;;;5.93;1.92;;;21.70;56.90;;;;;;4975026;28;20208;-67
2023/03/27 14:10:59;;;;;;;3.20;1.40;;;21.70;56.00;;;;;;5053799;28;20224;-67
2023/03/27 14:14:05;;;;;;;7.60;1.23;;;21.80;56.40;;;;;;5052058;28;20263;-68
2023/03/27 14:17:22;;;;;;;6.30;1.73;;;21.80;55.60;;;;;;5073563;28;20216;-68
2023/03/27 14:20:23;;;;;;;7.95;1.77;;;21.70;65.30;;;;;;5064334;28;20205;-67
2023/03/27 14:23:17;;;;;;;7.45;2.45;;;21.80;56.00;;;;;;5053383;28;20308;-66
2023/03/27 14:26:13;;;;;;;4.95;1.60;;;21.90;56.50;;;;;;5066984;28;20193;-66
2023/03/27 14:29:02;;;;;;;5.72;1.65;;;21.90;56.50;;;;;;5073011;28;20416;-67
2023/03/27 14:31:50;;;;;;;6.25;1.80;;;21.90;57.20;;;;;;5073177;28;20243;-67
2023/03/27 14:34:52;;;;;;;6.35;1.48;;;21.90;56.40;;;;;;5050975;28;20670;-67
2023/03/27 14:37:43;;;;;;;15.88;1.60;;;21.90;56.80;;;;;;5052672;28;20213;-67
2023/03/27 14:40:34;;;;;;;2.55;1.05;;;21.90;56.40;;;;;;5051682;28;20255;-66
2023/03/27 14:43:26;;;;;;;7.20;1.35;;;21.90;56.40;;;;;;5051151;28;20201;-67
2023/03/27 14:46:16;;;;;;;7.10;2.45;;;21.90;56.50;;;;;;5054172;28;20210;-67
2023/03/27 14:49:04;;;;;;;6.38;1.98;;;21.90;57.20;;;;;;5053850;28;20202;-68
2023/03/27 14:51:59;;;;;;;5.45;1.88;;;21.90;57.40;;;;;;5053037;28;20217;-68
2023/03/27 14:54:47;;;;;;;3.25;1.02;;;22.00;57.30;;;;;;5053350;28;20205;-68
2023/03/27 14:57:43;;;;;;;5.97;1.20;;;21.90;57.10;;;;;;5045427;28;20225;-67
2023/03/27 15:00:34;;;;;;;4.97;1.75;;;21.90;57.10;;;;;;5033796;28;20214;-70
2023/03/27 15:03:25;;;;;;;2.97;1.20;;;21.90;56.80;;;;;;5031633;28;20205;-67